sensor_id;sensor_type;location;lat;lon;timestamp;temperature;humidity
2363;DHT22;64265;51.664;7.626;2023-04-29T00:00:46;22.50;65.90
2363;DHT22;64265;51.664;7.626;2023-04-29T00:03:13;22.60;66.00
2363;DHT22;64265;51.664;7.626;2023-04-29T00:05:41;22.50;66.00
2363;DHT22;64265;51.664;7.626;2023-04-29T00:08:09;22.50;66.00
2363;DHT22;64265;51.664;7.626;2023-04-29T00:10:38;22.50;66.00
2363;DHT22;64265;51.664;7.626;2023-04-29T00:13:05;22.50;66.00
2363;DHT22;64265;51.664;7.626;2023-04-29T00:15:33;22.50;65.70
2363;DHT22;64265;51.664;7.626;2023-04-29T00:18:05;22.50;65.60
2363;DHT22;64265;51.664;7.626;2023-04-29T00:20:31;22.40;65.70
2363;DHT22;64265;51.664;7.626;2023-04-29T00:23:00;22.40;66.60
2363;DHT22;64265;51.664;7.626;2023-04-29T00:25:29;22.40;65.60
2363;DHT22;64265;51.664;7.626;2023-04-29T00:28:00;22.40;65.70
2363;DHT22;64265;51.664;7.626;2023-04-29T00:30:28;22.40;65.70
2363;DHT22;64265;51.664;7.626;2023-04-29T00:32:57;22.30;65.60
2363;DHT22;64265;51.664;7.626;2023-04-29T00:35:24;22.30;65.60
2363;DHT22;64265;51.664;7.626;2023-04-29T00:37:52;22.30;65.50
2363;DHT22;64265;51.664;7.626;2023-04-29T00:40:24;22.30;65.50
2363;DHT22;64265;51.664;7.626;2023-04-29T00:42:50;22.20;65.30
2363;DHT22;64265;51.664;7.626;2023-04-29T00:45:17;22.20;65.30
2363;DHT22;64265;51.664;7.626;2023-04-29T00:47:48;22.20;65.30
2363;DHT22;64265;51.664;7.626;2023-04-29T00:50:17;22.20;65.30
2363;DHT22;64265;51.664;7.626;2023-04-29T00:52:47;22.20;65.30
2363;DHT22;64265;51.664;7.626;2023-04-29T00:55:13;22.20;65.20
2363;DHT22;64265;51.664;7.626;2023-04-29T00:57:43;22.20;65.30
2363;DHT22;64265;51.664;7.626;2023-04-29T01:00:13;22.10;65.20
2363;DHT22;64265;51.664;7.626;2023-04-29T01:02:41;22.10;65.10
2363;DHT22;64265;51.664;7.626;2023-04-29T01:05:09;22.10;65.10
2363;DHT22;64265;51.664;7.626;2023-04-29T01:07:42;22.00;65.10
2363;DHT22;64265;51.664;7.626;2023-04-29T01:10:18;22.10;65.20
2363;DHT22;64265;51.664;7.626;2023-04-29T01:13:05;22.00;65.10
2363;DHT22;64265;51.664;7.626;2023-04-29T01:15:37;22.00;65.10
2363;DHT22;64265;51.664;7.626;2023-04-29T01:18:15;22.00;65.10
2363;DHT22;64265;51.664;7.626;2023-04-29T01:20:48;22.00;65.10
2363;DHT22;64265;51.664;7.626;2023-04-29T01:23:15;21.90;64.90
2363;DHT22;64265;51.664;7.626;2023-04-29T01:25:48;21.90;65.00
2363;DHT22;64265;51.664;7.626;2023-04-29T01:28:33;21.90;65.00
2363;DHT22;64265;51.664;7.626;2023-04-29T01:31:06;21.90;65.00
2363;DHT22;64265;51.664;7.626;2023-04-29T01:33:39;21.90;65.00
2363;DHT22;64265;51.664;7.626;2023-04-29T01:36:14;21.90;65.10
2363;DHT22;64265;51.664;7.626;2023-04-29T01:38:48;21.80;65.00
2363;DHT22;64265;51.664;7.626;2023-04-29T01:41:24;21.80;65.00
2363;DHT22;64265;51.664;7.626;2023-04-29T01:43:56;21.80;65.00
2363;DHT22;64265;51.664;7.626;2023-04-29T01:46:24;21.80;65.10
2363;DHT22;64265;51.664;7.626;2023-04-29T01:48:52;21.80;65.10
2363;DHT22;64265;51.664;7.626;2023-04-29T01:51:19;21.80;65.10
2363;DHT22;64265;51.664;7.626;2023-04-29T01:53:46;21.70;65.00
2363;DHT22;64265;51.664;7.626;2023-04-29T01:56:13;21.70;65.00
2363;DHT22;64265;51.664;7.626;2023-04-29T01:58:41;21.70;65.00
2363;DHT22;64265;51.664;7.626;2023-04-29T02:01:07;21.70;65.00
2363;DHT22;64265;51.664;7.626;2023-04-29T02:03:36;21.60;65.00
2363;DHT22;64265;51.664;7.626;2023-04-29T02:06:03;21.60;65.00
2363;DHT22;64265;51.664;7.626;2023-04-29T02:08:31;21.60;65.00
2363;DHT22;64265;51.664;7.626;2023-04-29T02:10:58;21.60;65.10
2363;DHT22;64265;51.664;7.626;2023-04-29T02:13:25;21.60;65.00
2363;DHT22;64265;51.664;7.626;2023-04-29T02:15:53;21.50;65.00
2363;DHT22;64265;51.664;7.626;2023-04-29T02:18:20;21.60;65.10
2363;DHT22;64265;51.664;7.626;2023-04-29T02:20:46;21.50;65.00
2363;DHT22;64265;51.664;7.626;2023-04-29T02:23:15;21.50;65.10
2363;DHT22;64265;51.664;7.626;2023-04-29T02:25:41;21.50;65.00
2363;DHT22;64265;51.664;7.626;2023-04-29T02:28:08;21.50;65.10
2363;DHT22;64265;51.664;7.626;2023-04-29T02:30:35;21.50;65.00
2363;DHT22;64265;51.664;7.626;2023-04-29T02:33:03;21.40;65.00
2363;DHT22;64265;51.664;7.626;2023-04-29T02:35:29;21.40;65.00
2363;DHT22;64265;51.664;7.626;2023-04-29T02:37:56;21.40;65.00
2363;DHT22;64265;51.664;7.626;2023-04-29T02:40:23;21.40;65.10
2363;DHT22;64265;51.664;7.626;2023-04-29T02:42:51;21.40;65.10
2363;DHT22;64265;51.664;7.626;2023-04-29T02:45:18;21.40;65.10
2363;DHT22;64265;51.664;7.626;2023-04-29T02:47:44;21.30;65.00
2363;DHT22;64265;51.664;7.626;2023-04-29T02:50:12;21.40;65.10
2363;DHT22;64265;51.664;7.626;2023-04-29T02:52:39;21.40;65.10
2363;DHT22;64265;51.664;7.626;2023-04-29T02:55:07;21.40;65.20
2363;DHT22;64265;51.664;7.626;2023-04-29T02:57:33;21.30;65.10
2363;DHT22;64265;51.664;7.626;2023-04-29T03:00:00;21.30;65.10
2363;DHT22;64265;51.664;7.626;2023-04-29T03:02:28;21.30;65.10
2363;DHT22;64265;51.664;7.626;2023-04-29T03:04:55;21.30;65.10
2363;DHT22;64265;51.664;7.626;2023-04-29T03:07:22;21.30;65.20
2363;DHT22;64265;51.664;7.626;2023-04-29T03:09:49;21.30;65.10
2363;DHT22;64265;51.664;7.626;2023-04-29T03:12:16;21.20;65.00
2363;DHT22;64265;51.664;7.626;2023-04-29T03:14:43;21.20;65.10
2363;DHT22;64265;51.664;7.626;2023-04-29T03:17:09;21.20;65.10
2363;DHT22;64265;51.664;7.626;2023-04-29T03:19:36;21.20;65.10
2363;DHT22;64265;51.664;7.626;2023-04-29T03:22:03;21.20;65.20
2363;DHT22;64265;51.664;7.626;2023-04-29T03:24:31;21.20;65.20
2363;DHT22;64265;51.664;7.626;2023-04-29T03:26:57;21.20;65.20
2363;DHT22;64265;51.664;7.626;2023-04-29T03:29:25;21.10;65.10
2363;DHT22;64265;51.664;7.626;2023-04-29T03:31:52;21.20;65.20
2363;DHT22;64265;51.664;7.626;2023-04-29T03:34:19;21.10;65.20
2363;DHT22;64265;51.664;7.626;2023-04-29T03:36:46;21.10;65.20
2363;DHT22;64265;51.664;7.626;2023-04-29T03:39:13;21.10;65.20
2363;DHT22;64265;51.664;7.626;2023-04-29T03:41:41;21.10;65.20
2363;DHT22;64265;51.664;7.626;2023-04-29T03:44:07;21.10;65.20
2363;DHT22;64265;51.664;7.626;2023-04-29T03:46:34;21.10;65.20
2363;DHT22;64265;51.664;7.626;2023-04-29T03:49:01;21.10;65.20
2363;DHT22;64265;51.664;7.626;2023-04-29T03:51:28;21.10;65.20
2363;DHT22;64265;51.664;7.626;2023-04-29T03:53:55;21.00;65.10
2363;DHT22;64265;51.664;7.626;2023-04-29T03:56:22;21.00;65.10
2363;DHT22;64265;51.664;7.626;2023-04-29T03:58:51;21.00;65.10
2363;DHT22;64265;51.664;7.626;2023-04-29T04:01:17;21.00;65.10
2363;DHT22;64265;51.664;7.626;2023-04-29T04:03:45;21.00;65.30
2363;DHT22;64265;51.664;7.626;2023-04-29T04:06:12;21.00;65.30
2363;DHT22;64265;51.664;7.626;2023-04-29T04:08:39;21.00;65.30
2363;DHT22;64265;51.664;7.626;2023-04-29T04:11:06;21.00;65.30
2363;DHT22;64265;51.664;7.626;2023-04-29T04:13:34;20.90;65.10
2363;DHT22;64265;51.664;7.626;2023-04-29T04:16:02;21.00;65.30
2363;DHT22;64265;51.664;7.626;2023-04-29T04:18:29;21.00;65.30
2363;DHT22;64265;51.664;7.626;2023-04-29T04:20:55;21.00;65.30
2363;DHT22;64265;51.664;7.626;2023-04-29T04:23:22;20.90;65.20
2363;DHT22;64265;51.664;7.626;2023-04-29T04:25:49;20.90;65.30
2363;DHT22;64265;51.664;7.626;2023-04-29T04:28:17;20.90;65.30
2363;DHT22;64265;51.664;7.626;2023-04-29T04:30:45;20.90;65.30
2363;DHT22;64265;51.664;7.626;2023-04-29T04:33:13;20.90;65.30
2363;DHT22;64265;51.664;7.626;2023-04-29T04:35:40;20.90;65.40
2363;DHT22;64265;51.664;7.626;2023-04-29T04:38:07;20.90;65.40
2363;DHT22;64265;51.664;7.626;2023-04-29T04:40:33;20.90;65.40
2363;DHT22;64265;51.664;7.626;2023-04-29T04:43:00;20.90;65.40
2363;DHT22;64265;51.664;7.626;2023-04-29T04:45:27;20.80;65.30
2363;DHT22;64265;51.664;7.626;2023-04-29T04:47:54;20.80;65.30
2363;DHT22;64265;51.664;7.626;2023-04-29T04:50:22;20.80;65.30
2363;DHT22;64265;51.664;7.626;2023-04-29T04:52:49;20.80;65.30
2363;DHT22;64265;51.664;7.626;2023-04-29T04:55:16;20.80;65.40
2363;DHT22;64265;51.664;7.626;2023-04-29T04:57:42;20.80;65.30
2363;DHT22;64265;51.664;7.626;2023-04-29T05:00:10;20.80;65.40
2363;DHT22;64265;51.664;7.626;2023-04-29T05:02:37;20.80;65.40
2363;DHT22;64265;51.664;7.626;2023-04-29T05:05:04;20.80;65.40
2363;DHT22;64265;51.664;7.626;2023-04-29T05:07:32;20.80;65.40
2363;DHT22;64265;51.664;7.626;2023-04-29T05:10:00;20.70;65.40
2363;DHT22;64265;51.664;7.626;2023-04-29T05:12:27;20.80;65.50
2363;DHT22;64265;51.664;7.626;2023-04-29T05:14:55;20.70;65.40
2363;DHT22;64265;51.664;7.626;2023-04-29T05:17:22;20.70;65.40
2363;DHT22;64265;51.664;7.626;2023-04-29T05:19:48;20.70;65.40
2363;DHT22;64265;51.664;7.626;2023-04-29T05:22:15;20.80;65.50
2363;DHT22;64265;51.664;7.626;2023-04-29T05:24:43;20.80;65.50
2363;DHT22;64265;51.664;7.626;2023-04-29T05:27:12;20.80;65.50
2363;DHT22;64265;51.664;7.626;2023-04-29T05:29:39;20.80;65.50
2363;DHT22;64265;51.664;7.626;2023-04-29T05:32:06;20.80;65.50
2363;DHT22;64265;51.664;7.626;2023-04-29T05:34:32;20.80;65.50
2363;DHT22;64265;51.664;7.626;2023-04-29T05:36:59;20.90;65.60
2363;DHT22;64265;51.664;7.626;2023-04-29T05:39:26;20.90;65.60
2363;DHT22;64265;51.664;7.626;2023-04-29T05:41:54;20.90;65.60
2363;DHT22;64265;51.664;7.626;2023-04-29T05:44:21;20.90;65.60
2363;DHT22;64265;51.664;7.626;2023-04-29T05:46:48;20.90;65.50
2363;DHT22;64265;51.664;7.626;2023-04-29T05:49:16;20.90;65.50
2363;DHT22;64265;51.664;7.626;2023-04-29T05:51:42;20.90;65.50
2363;DHT22;64265;51.664;7.626;2023-04-29T05:54:09;20.90;65.50
2363;DHT22;64265;51.664;7.626;2023-04-29T05:56:36;20.90;65.50
2363;DHT22;64265;51.664;7.626;2023-04-29T05:59:04;20.90;65.60
2363;DHT22;64265;51.664;7.626;2023-04-29T06:01:30;20.90;65.60
2363;DHT22;64265;51.664;7.626;2023-04-29T06:03:58;20.90;65.50
2363;DHT22;64265;51.664;7.626;2023-04-29T06:06:25;20.90;65.50
2363;DHT22;64265;51.664;7.626;2023-04-29T06:08:52;20.90;65.50
2363;DHT22;64265;51.664;7.626;2023-04-29T06:11:18;20.90;65.50
2363;DHT22;64265;51.664;7.626;2023-04-29T06:13:45;20.90;65.50
2363;DHT22;64265;51.664;7.626;2023-04-29T06:16:13;20.90;65.50
2363;DHT22;64265;51.664;7.626;2023-04-29T06:18:40;21.00;65.60
2363;DHT22;64265;51.664;7.626;2023-04-29T06:21:06;20.90;65.50
2363;DHT22;64265;51.664;7.626;2023-04-29T06:23:33;20.90;65.50
2363;DHT22;64265;51.664;7.626;2023-04-29T06:26:00;21.00;65.60
2363;DHT22;64265;51.664;7.626;2023-04-29T06:28:26;20.90;65.50
2363;DHT22;64265;51.664;7.626;2023-04-29T06:30:54;21.00;65.50
2363;DHT22;64265;51.664;7.626;2023-04-29T06:33:22;21.00;65.50
2363;DHT22;64265;51.664;7.626;2023-04-29T06:35:49;21.00;65.60
2363;DHT22;64265;51.664;7.626;2023-04-29T06:38:16;21.00;65.70
2363;DHT22;64265;51.664;7.626;2023-04-29T06:40:42;21.00;65.50
2363;DHT22;64265;51.664;7.626;2023-04-29T06:43:09;21.00;65.50
2363;DHT22;64265;51.664;7.626;2023-04-29T06:45:36;21.00;65.60
2363;DHT22;64265;51.664;7.626;2023-04-29T06:48:03;21.00;65.60
2363;DHT22;64265;51.664;7.626;2023-04-29T06:50:31;21.00;65.60
2363;DHT22;64265;51.664;7.626;2023-04-29T06:52:58;21.00;65.60
2363;DHT22;64265;51.664;7.626;2023-04-29T06:55:27;21.00;65.60
2363;DHT22;64265;51.664;7.626;2023-04-29T06:57:54;21.00;65.60
2363;DHT22;64265;51.664;7.626;2023-04-29T07:00:22;21.00;65.70
2363;DHT22;64265;51.664;7.626;2023-04-29T07:02:48;21.00;65.60
2363;DHT22;64265;51.664;7.626;2023-04-29T07:05:15;21.00;65.60
2363;DHT22;64265;51.664;7.626;2023-04-29T07:07:44;21.00;65.60
2363;DHT22;64265;51.664;7.626;2023-04-29T07:10:10;21.00;65.70
2363;DHT22;64265;51.664;7.626;2023-04-29T07:12:37;21.00;65.70
2363;DHT22;64265;51.664;7.626;2023-04-29T07:15:04;21.00;65.70
2363;DHT22;64265;51.664;7.626;2023-04-29T07:17:31;21.00;65.70
2363;DHT22;64265;51.664;7.626;2023-04-29T07:19:58;20.90;65.60
2363;DHT22;64265;51.664;7.626;2023-04-29T07:22:25;21.00;65.90
2363;DHT22;64265;51.664;7.626;2023-04-29T07:24:54;20.90;65.70
2363;DHT22;64265;51.664;7.626;2023-04-29T07:27:21;20.90;65.70
2363;DHT22;64265;51.664;7.626;2023-04-29T07:29:48;20.90;65.60
2363;DHT22;64265;51.664;7.626;2023-04-29T07:32:15;21.00;65.90
2363;DHT22;64265;51.664;7.626;2023-04-29T07:34:42;20.90;65.70
2363;DHT22;64265;51.664;7.626;2023-04-29T07:37:08;20.90;65.90
2363;DHT22;64265;51.664;7.626;2023-04-29T07:39:35;20.90;65.90
2363;DHT22;64265;51.664;7.626;2023-04-29T07:42:03;20.90;65.80
2363;DHT22;64265;51.664;7.626;2023-04-29T07:44:30;20.90;65.80
2363;DHT22;64265;51.664;7.626;2023-04-29T07:46:56;20.90;65.70
2363;DHT22;64265;51.664;7.626;2023-04-29T07:49:23;20.90;65.80
2363;DHT22;64265;51.664;7.626;2023-04-29T07:51:50;21.00;66.00
2363;DHT22;64265;51.664;7.626;2023-04-29T07:54:17;20.90;65.80
2363;DHT22;64265;51.664;7.626;2023-04-29T07:56:44;20.90;65.90
2363;DHT22;64265;51.664;7.626;2023-04-29T07:59:12;21.00;66.30
2363;DHT22;64265;51.664;7.626;2023-04-29T08:01:39;21.00;66.20
2363;DHT22;64265;51.664;7.626;2023-04-29T08:04:06;21.10;66.40
2363;DHT22;64265;51.664;7.626;2023-04-29T08:06:33;21.10;66.50
2363;DHT22;64265;51.664;7.626;2023-04-29T08:09:00;21.10;66.60
2363;DHT22;64265;51.664;7.626;2023-04-29T08:11:27;21.10;66.80
2363;DHT22;64265;51.664;7.626;2023-04-29T08:13:53;21.10;66.90
2363;DHT22;64265;51.664;7.626;2023-04-29T08:16:23;21.10;66.90
2363;DHT22;64265;51.664;7.626;2023-04-29T08:18:51;21.10;67.10
2363;DHT22;64265;51.664;7.626;2023-04-29T08:21:17;21.10;67.00
2363;DHT22;64265;51.664;7.626;2023-04-29T08:23:44;21.10;67.10
2363;DHT22;64265;51.664;7.626;2023-04-29T08:26:11;21.20;67.30
2363;DHT22;64265;51.664;7.626;2023-04-29T08:28:38;21.20;67.40
2363;DHT22;64265;51.664;7.626;2023-04-29T08:31:05;21.20;67.50
2363;DHT22;64265;51.664;7.626;2023-04-29T08:33:33;21.20;67.60
2363;DHT22;64265;51.664;7.626;2023-04-29T08:36:01;21.10;67.50
2363;DHT22;64265;51.664;7.626;2023-04-29T08:38:28;21.10;67.90
2363;DHT22;64265;51.664;7.626;2023-04-29T08:40:55;21.10;68.10
2363;DHT22;64265;51.664;7.626;2023-04-29T08:43:22;21.10;68.10
2363;DHT22;64265;51.664;7.626;2023-04-29T08:45:49;21.20;68.20
2363;DHT22;64265;51.664;7.626;2023-04-29T08:48:17;21.20;68.40
2363;DHT22;64265;51.664;7.626;2023-04-29T08:50:45;21.20;68.20
2363;DHT22;64265;51.664;7.626;2023-04-29T08:53:12;21.20;68.40
2363;DHT22;64265;51.664;7.626;2023-04-29T08:55:41;21.20;68.20
2363;DHT22;64265;51.664;7.626;2023-04-29T08:58:08;21.20;68.10
2363;DHT22;64265;51.664;7.626;2023-04-29T09:00:36;21.10;68.10
2363;DHT22;64265;51.664;7.626;2023-04-29T09:03:13;21.10;68.10
2363;DHT22;64265;51.664;7.626;2023-04-29T09:05:40;21.10;67.90
2363;DHT22;64265;51.664;7.626;2023-04-29T09:08:11;21.10;68.10
2363;DHT22;64265;51.664;7.626;2023-04-29T09:10:38;21.10;68.10
2363;DHT22;64265;51.664;7.626;2023-04-29T09:13:07;21.10;68.00
2363;DHT22;64265;51.664;7.626;2023-04-29T09:15:35;21.10;67.90
2363;DHT22;64265;51.664;7.626;2023-04-29T09:18:02;21.10;67.90
2363;DHT22;64265;51.664;7.626;2023-04-29T09:20:29;21.10;67.80
2363;DHT22;64265;51.664;7.626;2023-04-29T09:22:58;21.10;67.60
2363;DHT22;64265;51.664;7.626;2023-04-29T09:25:27;21.10;67.60
2363;DHT22;64265;51.664;7.626;2023-04-29T09:27:54;21.10;67.50
2363;DHT22;64265;51.664;7.626;2023-04-29T09:30:21;21.10;67.50
2363;DHT22;64265;51.664;7.626;2023-04-29T09:33:04;21.10;67.50
2363;DHT22;64265;51.664;7.626;2023-04-29T09:35:31;21.10;67.40
2363;DHT22;64265;51.664;7.626;2023-04-29T09:38:11;21.10;67.40
2363;DHT22;64265;51.664;7.626;2023-04-29T09:40:41;21.10;67.30
2363;DHT22;64265;51.664;7.626;2023-04-29T09:43:12;21.10;67.40
2363;DHT22;64265;51.664;7.626;2023-04-29T09:45:41;21.10;67.30
2363;DHT22;64265;51.664;7.626;2023-04-29T09:48:09;21.10;67.30
2363;DHT22;64265;51.664;7.626;2023-04-29T09:50:37;21.10;67.20
2363;DHT22;64265;51.664;7.626;2023-04-29T09:53:05;21.10;67.10
2363;DHT22;64265;51.664;7.626;2023-04-29T09:55:33;21.10;67.10
2363;DHT22;64265;51.664;7.626;2023-04-29T09:58:01;21.10;67.10
2363;DHT22;64265;51.664;7.626;2023-04-29T10:00:30;21.10;67.10
2363;DHT22;64265;51.664;7.626;2023-04-29T10:02:58;21.10;67.10
2363;DHT22;64265;51.664;7.626;2023-04-29T10:05:27;21.10;67.10
2363;DHT22;64265;51.664;7.626;2023-04-29T10:07:57;21.10;67.10
2363;DHT22;64265;51.664;7.626;2023-04-29T10:10:24;21.10;67.10
2363;DHT22;64265;51.664;7.626;2023-04-29T10:12:52;21.10;67.00
2363;DHT22;64265;51.664;7.626;2023-04-29T10:15:26;21.10;67.00
2363;DHT22;64265;51.664;7.626;2023-04-29T10:17:58;21.10;67.00
2363;DHT22;64265;51.664;7.626;2023-04-29T10:20:26;21.10;67.00
2363;DHT22;64265;51.664;7.626;2023-04-29T10:22:54;21.10;67.00
2363;DHT22;64265;51.664;7.626;2023-04-29T10:25:24;21.10;67.00
2363;DHT22;64265;51.664;7.626;2023-04-29T10:27:54;21.10;67.00
2363;DHT22;64265;51.664;7.626;2023-04-29T10:30:22;21.10;67.00
2363;DHT22;64265;51.664;7.626;2023-04-29T10:32:50;21.10;66.90
2363;DHT22;64265;51.664;7.626;2023-04-29T10:35:19;21.10;67.00
2363;DHT22;64265;51.664;7.626;2023-04-29T10:37:48;21.10;66.90
2363;DHT22;64265;51.664;7.626;2023-04-29T10:40:17;21.10;66.90
2363;DHT22;64265;51.664;7.626;2023-04-29T10:42:48;21.10;66.90
2363;DHT22;64265;51.664;7.626;2023-04-29T10:45:24;21.10;66.90
2363;DHT22;64265;51.664;7.626;2023-04-29T10:48:12;21.10;66.90
2363;DHT22;64265;51.664;7.626;2023-04-29T10:51:00;21.10;66.80
2363;DHT22;64265;51.664;7.626;2023-04-29T10:53:30;21.10;66.80
2363;DHT22;64265;51.664;7.626;2023-04-29T10:56:03;21.10;66.40
2363;DHT22;64265;51.664;7.626;2023-04-29T10:58:37;21.00;65.70
2363;DHT22;64265;51.664;7.626;2023-04-29T11:01:06;21.00;65.40
2363;DHT22;64265;51.664;7.626;2023-04-29T11:03:48;21.00;65.90
2363;DHT22;64265;51.664;7.626;2023-04-29T11:06:19;21.00;66.00
2363;DHT22;64265;51.664;7.626;2023-04-29T11:08:58;20.90;65.70
2363;DHT22;64265;51.664;7.626;2023-04-29T11:11:25;20.90;65.60
2363;DHT22;64265;51.664;7.626;2023-04-29T11:13:53;20.90;65.60
2363;DHT22;64265;51.664;7.626;2023-04-29T11:16:25;20.90;65.50
2363;DHT22;64265;51.664;7.626;2023-04-29T11:19:06;20.80;65.40
2363;DHT22;64265;51.664;7.626;2023-04-29T11:21:34;20.80;65.20
2363;DHT22;64265;51.664;7.626;2023-04-29T11:24:01;20.80;65.00
2363;DHT22;64265;51.664;7.626;2023-04-29T11:26:29;20.80;64.50
2363;DHT22;64265;51.664;7.626;2023-04-29T11:28:56;20.70;64.30
2363;DHT22;64265;51.664;7.626;2023-04-29T11:31:29;20.70;64.30
2363;DHT22;64265;51.664;7.626;2023-04-29T11:33:56;20.70;64.10
2363;DHT22;64265;51.664;7.626;2023-04-29T11:36:23;20.70;64.00
2363;DHT22;64265;51.664;7.626;2023-04-29T11:38:50;20.70;64.00
2363;DHT22;64265;51.664;7.626;2023-04-29T11:41:17;20.70;63.90
2363;DHT22;64265;51.664;7.626;2023-04-29T11:43:45;20.70;63.80
2363;DHT22;64265;51.664;7.626;2023-04-29T11:46:12;20.70;63.70
2363;DHT22;64265;51.664;7.626;2023-04-29T11:48:46;20.70;63.50
2363;DHT22;64265;51.664;7.626;2023-04-29T11:51:14;20.80;64.10
2363;DHT22;64265;51.664;7.626;2023-04-29T11:53:41;20.80;64.30
2363;DHT22;64265;51.664;7.626;2023-04-29T11:56:08;21.00;64.60
2363;DHT22;64265;51.664;7.626;2023-04-29T11:58:35;21.00;64.70
2363;DHT22;64265;51.664;7.626;2023-04-29T12:01:02;21.10;64.90
2363;DHT22;64265;51.664;7.626;2023-04-29T12:03:31;21.20;65.00
2363;DHT22;64265;51.664;7.626;2023-04-29T12:06:01;21.30;65.20
2363;DHT22;64265;51.664;7.626;2023-04-29T12:08:28;21.30;65.20
2363;DHT22;64265;51.664;7.626;2023-04-29T12:10:56;21.40;65.40
2363;DHT22;64265;51.664;7.626;2023-04-29T12:13:24;21.40;65.30
2363;DHT22;64265;51.664;7.626;2023-04-29T12:15:51;21.50;65.40
2363;DHT22;64265;51.664;7.626;2023-04-29T12:18:19;21.50;65.40
2363;DHT22;64265;51.664;7.626;2023-04-29T12:20:47;21.60;65.50
2363;DHT22;64265;51.664;7.626;2023-04-29T12:23:19;21.60;65.50
2363;DHT22;64265;51.664;7.626;2023-04-29T12:25:48;21.70;65.60
2363;DHT22;64265;51.664;7.626;2023-04-29T12:28:16;21.70;65.60
2363;DHT22;64265;51.664;7.626;2023-04-29T12:30:43;21.80;65.70
2363;DHT22;64265;51.664;7.626;2023-04-29T12:33:15;21.80;65.70
2363;DHT22;64265;51.664;7.626;2023-04-29T12:35:41;21.80;65.70
2363;DHT22;64265;51.664;7.626;2023-04-29T12:38:08;21.90;65.80
2363;DHT22;64265;51.664;7.626;2023-04-29T12:40:36;21.90;65.70
2363;DHT22;64265;51.664;7.626;2023-04-29T12:43:07;21.90;65.70
2363;DHT22;64265;51.664;7.626;2023-04-29T12:45:34;22.00;65.90
2363;DHT22;64265;51.664;7.626;2023-04-29T12:48:01;21.90;65.70
2363;DHT22;64265;51.664;7.626;2023-04-29T12:50:30;22.00;65.80
2363;DHT22;64265;51.664;7.626;2023-04-29T12:52:58;22.00;65.80
2363;DHT22;64265;51.664;7.626;2023-04-29T12:55:25;22.00;65.80
2363;DHT22;64265;51.664;7.626;2023-04-29T12:57:53;22.00;65.70
2363;DHT22;64265;51.664;7.626;2023-04-29T13:00:20;22.00;65.70
2363;DHT22;64265;51.664;7.626;2023-04-29T13:02:46;22.00;65.70
2363;DHT22;64265;51.664;7.626;2023-04-29T13:05:13;22.00;65.30
2363;DHT22;64265;51.664;7.626;2023-04-29T13:07:41;22.00;65.20
2363;DHT22;64265;51.664;7.626;2023-04-29T13:10:08;21.90;65.10
2363;DHT22;64265;51.664;7.626;2023-04-29T13:12:36;21.90;65.10
2363;DHT22;64265;51.664;7.626;2023-04-29T13:15:05;21.90;65.30
2363;DHT22;64265;51.664;7.626;2023-04-29T13:17:34;21.90;65.30
2363;DHT22;64265;51.664;7.626;2023-04-29T13:20:01;21.90;65.30
2363;DHT22;64265;51.664;7.626;2023-04-29T13:22:28;21.90;65.40
2363;DHT22;64265;51.664;7.626;2023-04-29T13:24:55;21.90;65.40
2363;DHT22;64265;51.664;7.626;2023-04-29T13:27:21;21.90;65.40
2363;DHT22;64265;51.664;7.626;2023-04-29T13:29:48;21.90;65.50
2363;DHT22;64265;51.664;7.626;2023-04-29T13:32:16;21.90;65.40
2363;DHT22;64265;51.664;7.626;2023-04-29T13:34:45;21.90;65.40
2363;DHT22;64265;51.664;7.626;2023-04-29T13:37:12;21.90;65.30
2363;DHT22;64265;51.664;7.626;2023-04-29T13:39:39;21.90;65.20
2363;DHT22;64265;51.664;7.626;2023-04-29T13:42:05;21.90;65.00
2363;DHT22;64265;51.664;7.626;2023-04-29T13:44:32;21.90;65.00
2363;DHT22;64265;51.664;7.626;2023-04-29T13:46:59;21.90;64.80
2363;DHT22;64265;51.664;7.626;2023-04-29T13:49:28;21.90;64.70
2363;DHT22;64265;51.664;7.626;2023-04-29T13:51:54;21.90;64.60
2363;DHT22;64265;51.664;7.626;2023-04-29T13:54:21;21.90;64.50
2363;DHT22;64265;51.664;7.626;2023-04-29T13:56:48;21.90;64.40
2363;DHT22;64265;51.664;7.626;2023-04-29T13:59:15;21.90;64.50
2363;DHT22;64265;51.664;7.626;2023-04-29T14:01:41;22.00;64.70
2363;DHT22;64265;51.664;7.626;2023-04-29T14:04:09;22.00;64.80
2363;DHT22;64265;51.664;7.626;2023-04-29T14:06:37;22.00;64.80
2363;DHT22;64265;51.664;7.626;2023-04-29T14:09:04;22.00;65.10
2363;DHT22;64265;51.664;7.626;2023-04-29T14:11:30;22.00;65.20
2363;DHT22;64265;51.664;7.626;2023-04-29T14:14:00;22.00;65.30
2363;DHT22;64265;51.664;7.626;2023-04-29T14:16:27;22.00;65.40
2363;DHT22;64265;51.664;7.626;2023-04-29T14:18:54;22.00;65.50
2363;DHT22;64265;51.664;7.626;2023-04-29T14:21:21;22.00;65.60
2363;DHT22;64265;51.664;7.626;2023-04-29T14:23:49;21.90;65.60
2363;DHT22;64265;51.664;7.626;2023-04-29T14:26:16;21.90;65.70
2363;DHT22;64265;51.664;7.626;2023-04-29T14:28:42;21.90;66.00
2363;DHT22;64265;51.664;7.626;2023-04-29T14:31:09;21.90;66.00
2363;DHT22;64265;51.664;7.626;2023-04-29T14:33:38;21.90;65.90
2363;DHT22;64265;51.664;7.626;2023-04-29T14:36:05;21.90;65.90
2363;DHT22;64265;51.664;7.626;2023-04-29T14:38:32;21.90;65.90
2363;DHT22;64265;51.664;7.626;2023-04-29T14:41:00;22.00;66.00
2363;DHT22;64265;51.664;7.626;2023-04-29T14:43:27;22.00;66.20
2363;DHT22;64265;51.664;7.626;2023-04-29T14:45:54;22.00;66.50
2363;DHT22;64265;51.664;7.626;2023-04-29T14:48:21;22.00;66.50
2363;DHT22;64265;51.664;7.626;2023-04-29T14:50:48;22.00;66.60
2363;DHT22;64265;51.664;7.626;2023-04-29T14:53:14;22.00;66.70
2363;DHT22;64265;51.664;7.626;2023-04-29T14:55:41;22.00;66.70
2363;DHT22;64265;51.664;7.626;2023-04-29T14:58:09;22.00;66.70
2363;DHT22;64265;51.664;7.626;2023-04-29T15:00:36;22.00;66.80
2363;DHT22;64265;51.664;7.626;2023-04-29T15:03:03;22.00;66.80
2363;DHT22;64265;51.664;7.626;2023-04-29T15:05:30;22.00;66.80
2363;DHT22;64265;51.664;7.626;2023-04-29T15:07:57;22.10;66.90
2363;DHT22;64265;51.664;7.626;2023-04-29T15:10:25;22.10;67.00
2363;DHT22;64265;51.664;7.626;2023-04-29T15:12:52;22.10;66.90
2363;DHT22;64265;51.664;7.626;2023-04-29T15:15:21;22.10;66.90
2363;DHT22;64265;51.664;7.626;2023-04-29T15:17:48;22.10;66.90
2363;DHT22;64265;51.664;7.626;2023-04-29T15:20:15;22.10;66.90
2363;DHT22;64265;51.664;7.626;2023-04-29T15:22:41;22.20;67.00
2363;DHT22;64265;51.664;7.626;2023-04-29T15:25:08;22.20;67.00
2363;DHT22;64265;51.664;7.626;2023-04-29T15:27:35;22.20;67.00
2363;DHT22;64265;51.664;7.626;2023-04-29T15:30:02;22.20;66.90
2363;DHT22;64265;51.664;7.626;2023-04-29T15:32:30;22.20;67.00
2363;DHT22;64265;51.664;7.626;2023-04-29T15:34:57;22.20;67.00
2363;DHT22;64265;51.664;7.626;2023-04-29T15:37:24;22.30;67.00
2363;DHT22;64265;51.664;7.626;2023-04-29T15:39:51;22.30;67.10
2363;DHT22;64265;51.664;7.626;2023-04-29T15:42:18;22.30;67.90
2363;DHT22;64265;51.664;7.626;2023-04-29T15:44:45;22.30;67.00
2363;DHT22;64265;51.664;7.626;2023-04-29T15:47:11;22.30;67.00
2363;DHT22;64265;51.664;7.626;2023-04-29T15:49:40;22.40;67.10